createdAt,value
2018-09-23T00:01:07.195Z,3.25
2018-09-23T00:03:35.724Z,3.25
2018-09-23T00:06:04.237Z,3.30
2018-09-23T00:08:32.713Z,3.30
2018-09-23T00:11:01.229Z,3.22
2018-09-23T00:13:29.750Z,3.27
2018-09-23T00:15:58.281Z,3.30
2018-09-23T00:18:26.805Z,3.25
2018-09-23T00:20:55.505Z,3.25
2018-09-23T00:23:24.015Z,3.20
2018-09-23T00:25:52.538Z,3.17
2018-09-23T00:28:21.047Z,3.15
2018-09-23T00:30:49.564Z,3.40
2018-09-23T00:33:18.089Z,3.10
2018-09-23T00:35:46.626Z,3.20
2018-09-23T00:38:15.162Z,3.12
2018-09-23T00:40:43.707Z,3.10
2018-09-23T00:43:12.199Z,3.10
2018-09-23T00:45:40.708Z,3.00
2018-09-23T00:48:09.523Z,3.05
2018-09-23T00:50:38.034Z,3.05
2018-09-23T00:53:06.661Z,3.00
2018-09-23T00:55:35.172Z,3.02
2018-09-23T00:58:03.697Z,3.08
2018-09-23T01:00:32.196Z,2.98
2018-09-23T01:03:00.677Z,3.02
2018-09-23T01:05:29.193Z,2.98
2018-09-23T01:07:57.705Z,2.95
2018-09-23T01:10:26.224Z,2.98
2018-09-23T01:12:54.853Z,2.90
2018-09-23T01:15:23.346Z,3.00
2018-09-23T01:17:51.873Z,3.00
2018-09-23T01:20:20.896Z,2.90
2018-09-23T01:22:49.862Z,2.90
2018-09-23T01:25:18.373Z,3.60
2018-09-23T01:27:46.889Z,2.87
2018-09-23T01:30:15.418Z,3.30
2018-09-23T01:32:43.931Z,2.80
2018-09-23T01:35:12.424Z,2.72
2018-09-23T01:37:46.552Z,2.80
2018-09-23T01:40:15.075Z,2.70
2018-09-23T01:42:43.599Z,2.67
2018-09-23T01:45:12.099Z,2.60
2018-09-23T01:47:40.618Z,2.55
2018-09-23T01:50:09.126Z,2.50
2018-09-23T01:52:37.641Z,2.50
2018-09-23T01:55:06.233Z,2.45
2018-09-23T01:57:34.737Z,2.40
2018-09-23T02:00:03.269Z,2.47
2018-09-23T02:02:31.781Z,2.30
2018-09-23T02:05:00.265Z,2.35
2018-09-23T02:07:28.781Z,2.30
2018-09-23T02:09:57.297Z,2.20
2018-09-23T02:12:25.830Z,2.30
2018-09-23T02:14:54.317Z,2.20
2018-09-23T02:17:22.845Z,2.10
2018-09-23T02:19:51.335Z,2.10
2018-09-23T02:22:19.853Z,2.10
2018-09-23T02:24:48.353Z,2.08
2018-09-23T02:27:16.860Z,2.00
2018-09-23T02:29:45.383Z,2.05
2018-09-23T02:32:13.877Z,2.00
2018-09-23T02:34:42.376Z,2.00
2018-09-23T02:37:10.870Z,2.10
2018-09-23T02:39:39.389Z,2.00
2018-09-23T02:42:07.890Z,2.00
2018-09-23T02:44:36.415Z,2.02
2018-09-23T02:47:04.907Z,2.00
2018-09-23T02:49:33.418Z,2.00
2018-09-23T02:52:01.911Z,2.00
2018-09-23T02:54:30.426Z,2.00
2018-09-23T02:56:58.897Z,2.00
2018-09-23T02:59:27.378Z,1.98
2018-09-23T03:01:55.866Z,1.95
2018-09-23T03:04:24.418Z,2.00
2018-09-23T03:06:52.909Z,2.00
2018-09-23T03:09:21.464Z,1.98
2018-09-23T03:11:49.956Z,1.92
2018-09-23T03:14:18.499Z,2.00
2018-09-23T03:16:47.017Z,1.92
2018-09-23T03:19:15.521Z,2.10
2018-09-23T03:21:44.069Z,1.90
2018-09-23T03:24:12.555Z,1.92
2018-09-23T03:26:41.042Z,1.90
2018-09-23T03:29:09.541Z,1.98
2018-09-23T03:31:38.018Z,1.98
2018-09-23T03:34:06.513Z,2.00
2018-09-23T03:36:34.995Z,1.98
2018-09-23T03:39:04.153Z,1.90
2018-09-23T03:41:32.648Z,2.10
2018-09-23T03:44:01.141Z,1.90
2018-09-23T03:46:29.629Z,1.90
2018-09-23T03:48:58.198Z,1.90
2018-09-23T03:51:26.673Z,1.87
2018-09-23T03:53:55.178Z,1.90
2018-09-23T03:56:23.664Z,1.90
2018-09-23T03:58:52.154Z,1.90
2018-09-23T04:01:20.757Z,1.90
2018-09-23T04:03:49.250Z,1.90
2018-09-23T04:06:17.805Z,1.90
2018-09-23T04:08:46.292Z,1.90
2018-09-23T04:11:14.773Z,1.90
2018-09-23T04:13:43.237Z,1.90
2018-09-23T04:16:11.861Z,1.90
2018-09-23T04:18:40.318Z,1.90
2018-09-23T04:21:08.816Z,1.90
2018-09-23T04:23:37.281Z,1.98
2018-09-23T04:26:05.881Z,1.90
2018-09-23T04:28:34.365Z,1.90
2018-09-23T04:31:02.875Z,1.90
2018-09-23T04:33:31.350Z,1.90
2018-09-23T04:35:59.843Z,1.92
2018-09-23T04:38:28.326Z,1.90
2018-09-23T04:40:56.841Z,1.90
2018-09-23T04:43:25.300Z,1.90
2018-09-23T04:45:53.785Z,1.90
2018-09-23T04:48:22.249Z,1.90
2018-09-23T04:50:50.754Z,1.90
2018-09-23T04:53:19.222Z,1.90
2018-09-23T04:55:47.717Z,1.90
2018-09-23T04:58:16.173Z,2.00
2018-09-23T05:00:44.679Z,1.90
2018-09-23T05:03:13.166Z,1.90
2018-09-23T05:05:41.656Z,1.90
2018-09-23T05:08:10.137Z,1.90
2018-09-23T05:10:38.691Z,1.95
2018-09-23T05:13:07.213Z,1.98
2018-09-23T05:15:35.725Z,1.98
2018-09-23T05:18:04.436Z,2.00
2018-09-23T05:20:32.946Z,2.00
2018-09-23T05:23:01.425Z,2.00
2018-09-23T05:25:29.928Z,2.00
2018-09-23T05:27:58.481Z,2.08
2018-09-23T05:30:26.989Z,2.22
2018-09-23T05:32:55.454Z,1.90
2018-09-23T05:35:23.965Z,1.98
2018-09-23T05:37:52.453Z,1.98
2018-09-23T05:40:20.993Z,2.00
2018-09-23T05:42:49.513Z,2.00
2018-09-23T05:45:18.018Z,1.98
2018-09-23T05:47:46.536Z,1.90
2018-09-23T05:50:15.025Z,2.00
2018-09-23T05:52:43.530Z,2.00
2018-09-23T05:55:12.031Z,2.02
2018-09-23T05:57:40.551Z,2.00
2018-09-23T06:00:10.308Z,2.08
2018-09-23T06:02:38.818Z,2.02
2018-09-23T06:05:07.324Z,2.08
2018-09-23T06:07:35.848Z,2.10
2018-09-23T06:10:04.663Z,2.10
2018-09-23T06:12:33.222Z,2.10
2018-09-23T06:15:01.833Z,2.10
2018-09-23T06:17:30.329Z,2.10
2018-09-23T06:19:58.889Z,2.10
2018-09-23T06:22:27.411Z,2.10
2018-09-23T06:24:55.951Z,2.12
2018-09-23T06:27:24.484Z,2.20
2018-09-23T06:29:52.997Z,2.20
2018-09-23T06:32:21.549Z,2.20
2018-09-23T06:34:50.050Z,2.25
2018-09-23T06:37:18.557Z,2.30
2018-09-23T06:39:47.061Z,2.30
2018-09-23T06:42:15.570Z,2.30
2018-09-23T06:44:44.069Z,2.30
2018-09-23T06:47:12.578Z,2.40
2018-09-23T06:49:41.083Z,2.40
2018-09-23T06:52:09.600Z,2.40
2018-09-23T06:54:38.094Z,2.50
2018-09-23T06:57:06.646Z,2.58
2018-09-23T06:59:35.145Z,2.58
2018-09-23T07:02:03.671Z,2.60
2018-09-23T07:04:32.204Z,2.62
2018-09-23T07:07:00.689Z,2.60
2018-09-23T07:09:29.206Z,2.65
2018-09-23T07:11:57.716Z,2.80
2018-09-23T07:14:26.195Z,2.67
2018-09-23T07:16:54.757Z,2.77
2018-09-23T07:19:23.277Z,2.75
2018-09-23T07:21:51.769Z,2.77
2018-09-23T07:24:20.305Z,2.77
2018-09-23T07:26:48.792Z,2.90
2018-09-23T07:29:17.315Z,2.85
2018-09-23T07:31:45.810Z,2.85
2018-09-23T07:34:14.352Z,2.90
2018-09-23T07:36:42.931Z,2.90
2018-09-23T07:39:11.513Z,2.92
2018-09-23T07:41:40.362Z,2.95
2018-09-23T07:44:09.065Z,3.00
2018-09-23T07:46:37.562Z,3.10
2018-09-23T07:49:06.498Z,3.00
2018-09-23T07:51:34.969Z,3.30
2018-09-23T07:54:03.450Z,3.00
2018-09-23T07:56:32.023Z,3.02
2018-09-23T07:59:00.491Z,3.10
2018-09-23T08:01:28.988Z,3.10
2018-09-23T08:03:57.554Z,3.10
2018-09-23T08:06:26.055Z,3.12
2018-09-23T08:08:54.557Z,3.10
2018-09-23T08:11:23.027Z,3.08
2018-09-23T08:13:51.675Z,3.08
2018-09-23T08:16:20.022Z,3.02
2018-09-23T08:18:48.498Z,3.08
2018-09-23T08:21:17.029Z,3.00
2018-09-23T08:23:45.542Z,3.08
2018-09-23T08:26:14.017Z,3.10
2018-09-23T08:28:42.475Z,3.00
2018-09-23T08:31:10.965Z,3.10
2018-09-23T08:33:39.433Z,3.10
2018-09-23T08:36:07.997Z,3.10
2018-09-23T08:38:36.509Z,3.12
2018-09-23T08:41:05.070Z,3.17
2018-09-23T08:43:33.565Z,3.15
2018-09-23T08:46:02.101Z,3.10
2018-09-23T08:48:30.585Z,3.10
2018-09-23T08:50:59.106Z,3.10
2018-09-23T08:53:27.612Z,3.12
2018-09-23T08:55:56.115Z,3.10
2018-09-23T08:58:24.617Z,3.17
2018-09-23T09:00:53.167Z,3.05
2018-09-23T09:03:21.698Z,3.02
2018-09-23T09:05:50.207Z,3.00
2018-09-23T09:08:18.705Z,3.00
2018-09-23T09:10:47.220Z,3.00
2018-09-23T09:13:15.720Z,3.00
2018-09-23T09:15:44.459Z,3.00
2018-09-23T09:18:13.163Z,3.05
2018-09-23T09:20:41.671Z,2.98
2018-09-23T09:23:10.186Z,3.00
2018-09-23T09:25:38.731Z,2.98
2018-09-23T09:28:07.305Z,3.10
2018-09-23T09:30:35.828Z,2.95
2018-09-23T09:33:04.360Z,3.00
2018-09-23T09:35:32.907Z,2.92
2018-09-23T09:38:01.393Z,3.30
2018-09-23T09:40:29.973Z,2.95
2018-09-23T09:42:58.477Z,3.00
2018-09-23T09:45:26.960Z,3.00
2018-09-23T09:47:55.905Z,3.00
2018-09-23T09:50:24.425Z,3.15
2018-09-23T09:52:52.937Z,3.10
2018-09-23T09:55:21.472Z,3.12
2018-09-23T09:57:50.082Z,3.20
2018-09-23T10:00:23.975Z,3.10
2018-09-23T10:02:52.590Z,3.12
2018-09-23T10:05:21.409Z,3.00
2018-09-23T10:07:50.423Z,3.12
2018-09-23T10:10:19.198Z,3.10
2018-09-23T10:12:48.558Z,3.12
2018-09-23T10:15:17.067Z,3.10
2018-09-23T10:17:45.786Z,3.15
2018-09-23T10:20:14.354Z,3.10
2018-09-23T10:22:42.947Z,3.15
2018-09-23T10:25:11.415Z,3.20
2018-09-23T10:27:39.921Z,3.20
2018-09-23T10:30:09.194Z,3.22
2018-09-23T10:32:37.761Z,3.25
2018-09-23T10:35:06.460Z,3.20
2018-09-23T10:37:35.179Z,3.20
2018-09-23T10:40:03.773Z,3.20
2018-09-23T10:42:32.336Z,3.30
2018-09-23T10:45:00.832Z,3.27
2018-09-23T10:47:29.340Z,3.20
2018-09-23T10:49:57.828Z,3.20
2018-09-23T10:52:26.349Z,3.20
2018-09-23T10:54:54.896Z,3.23
2018-09-23T10:57:23.432Z,3.23
2018-09-23T10:59:51.942Z,3.30
2018-09-23T11:02:20.498Z,3.20
2018-09-23T11:04:49.006Z,3.27
2018-09-23T11:07:17.581Z,3.30
2018-09-23T11:09:46.112Z,3.30
2018-09-23T11:12:14.651Z,3.30
2018-09-23T11:14:43.197Z,3.30
2018-09-23T11:17:11.725Z,3.27
2018-09-23T11:19:40.224Z,3.33
2018-09-23T11:22:08.841Z,3.33
2018-09-23T11:24:37.395Z,3.30
2018-09-23T11:27:05.890Z,3.33
2018-09-23T11:29:34.414Z,3.33
2018-09-23T11:32:02.928Z,3.33
2018-09-23T11:34:31.726Z,3.30
2018-09-23T11:37:00.243Z,3.30
2018-09-23T11:39:28.762Z,3.30
2018-09-23T11:41:57.360Z,3.30
2018-09-23T11:44:25.882Z,3.27
2018-09-23T11:46:54.358Z,3.33
2018-09-23T11:49:22.855Z,3.30
2018-09-23T11:51:51.330Z,3.30
2018-09-23T11:54:19.838Z,3.40
2018-09-23T11:56:48.333Z,3.30
2018-09-23T11:59:16.917Z,3.30
2018-09-23T12:01:45.354Z,3.30
2018-09-23T12:04:13.870Z,3.27
2018-09-23T12:06:42.331Z,3.30
2018-09-23T12:09:12.563Z,3.30
2018-09-23T12:11:41.067Z,3.30
2018-09-23T12:14:10.070Z,3.30
2018-09-23T12:16:38.483Z,3.40
2018-09-23T12:19:07.103Z,3.30
2018-09-23T12:21:35.555Z,3.30
2018-09-23T12:24:04.062Z,3.30
2018-09-23T12:26:32.498Z,3.30
2018-09-23T12:29:00.938Z,3.37
2018-09-23T12:31:29.381Z,3.37
2018-09-23T12:33:57.854Z,3.30
2018-09-23T12:36:26.290Z,3.30
2018-09-23T12:38:54.787Z,3.23
